Time;durP1;ratioP1;P1;durP2;ratioP2;P2;SDS_P1;SDS_P2;PMS_P1;PMS_P2;Temp;Humidity;BMP_temperature;BMP_pressure;BME280_temperature;BME280_humidity;BME280_pressure;Samples;Min_cycle;Max_cycle;Signal;HPM_P1;HPM_P2
2022/05/29 00:01:14;;;;;;;;;;;;;;;14.12;41.16;101953.97;7358355;19;19922;-59
2022/05/29 00:03:39;;;;;;;;;;;;;;;14.10;41.03;101961.03;7359120;19;20487;-59
2022/05/29 00:06:05;;;;;;;;;;;;;;;14.08;41.45;101952.28;7362317;19;19939;-59
2022/05/29 00:08:31;;;;;;;;;;;;;;;14.06;41.25;101954.09;7361217;19;19927;-61
2022/05/29 00:10:58;;;;;;;;;;;;;;;14.03;40.95;101948.88;7360846;19;19925;-61
2022/05/29 00:13:24;;;;;;;;;;;;;;;14.00;41.31;101948.94;7356081;19;20711;-61
2022/05/29 00:15:49;;;;;;;;;;;;;;;13.97;41.00;101943.72;7362046;19;19947;-61
2022/05/29 00:18:15;;;;;;;;;;;;;;;13.94;41.16;101943.81;7361792;19;19915;-61
2022/05/29 00:20:40;;;;;;;;;;;;;;;13.89;41.57;101943.88;7361646;19;20009;-61
2022/05/29 00:23:05;;;;;;;;;;;;;;;13.85;41.53;101938.69;7359070;19;20359;-61
2022/05/29 00:25:31;;;;;;;;;;;;;;;13.81;41.68;101932.63;7359852;19;19927;-60
2022/05/29 00:27:56;;;;;;;;;;;;;;;13.79;41.32;101938.78;7358895;19;19922;-62
2022/05/29 00:30:22;;;;;;;;;;;;;;;13.74;41.87;101942.38;7360036;19;20522;-62
2022/05/29 00:32:47;;;;;;;;;;;;;;;13.72;41.90;101938.00;7357645;19;19933;-61
2022/05/29 00:35:12;;;;;;;;;;;;;;;13.69;41.67;101933.69;7360828;19;20671;-61
2022/05/29 00:37:39;;;;;;;;;;;;;;;13.65;41.69;101933.75;7359878;19;19922;-61
2022/05/29 00:40:14;;;;;;;;;;;;;;;13.62;41.77;101931.19;7359982;19;19921;-61
2022/05/29 00:42:39;;;;;;;;;;;;;;;13.59;42.00;101932.09;7365974;19;19928;-61
2022/05/29 00:45:09;;;;;;;;;;;;;;;13.56;42.08;101932.16;7367264;19;20647;-62
2022/05/29 00:47:34;;;;;;;;;;;;;;;13.51;41.47;101923.47;7366564;19;19923;-61
2022/05/29 00:49:59;;;;;;;;;;;;;;;13.46;42.05;101920.06;7366961;19;20532;-60
2022/05/29 00:52:27;;;;;;;;;;;;;;;13.39;41.84;101918.44;7362306;19;19943;-61
2022/05/29 00:54:53;;;;;;;;;;;;;;;13.29;42.14;101906.34;7366994;19;19951;-61
2022/05/29 00:57:38;;;;;;;;;;;;;;;13.29;42.28;101919.44;7365459;19;19926;-61
2022/05/29 01:00:09;;;;;;;;;;;;;;;13.23;42.24;101920.41;7363733;19;19935;-61
2022/05/29 01:02:35;;;;;;;;;;;;;;;13.19;42.31;101906.44;7364162;19;20471;-60
2022/05/29 01:05:02;;;;;;;;;;;;;;;13.17;42.70;101907.31;7365461;19;19927;-62
2022/05/29 01:07:28;;;;;;;;;;;;;;;13.13;42.47;101911.75;7366272;19;19998;-62
2022/05/29 01:09:54;;;;;;;;;;;;;;;13.11;42.39;101904.78;7364717;19;19931;-61
2022/05/29 01:12:34;;;;;;;;;;;;;;;13.06;42.27;101904.84;7366040;19;20294;-61
2022/05/29 01:15:22;;;;;;;;;;;;;;;13.02;42.32;101908.41;7362774;19;19998;-62
2022/05/29 01:17:50;;;;;;;;;;;;;;;12.97;42.50;101905.84;7365296;19;20235;-61
2022/05/29 01:20:18;;;;;;;;;;;;;;;12.92;42.25;101901.53;7364553;19;19966;-61
2022/05/29 01:22:44;;;;;;;;;;;;;;;12.87;42.24;101898.13;7365354;19;19911;-61
2022/05/29 01:25:27;;;;;;;;;;;;;;;12.81;42.41;101890.34;7365290;19;20578;-60
2022/05/29 01:28:11;;;;;;;;;;;;;;;12.72;42.53;101884.34;7369352;19;19939;-61
2022/05/29 01:30:41;;;;;;;;;;;;;;;12.65;42.35;101887.03;7370552;19;20260;-61
2022/05/29 01:33:21;;;;;;;;;;;;;;;12.59;42.69;101885.38;7367118;19;19946;-60
2022/05/29 01:35:46;;;;;;;;;;;;;;;12.51;42.12;101879.34;7369848;19;19919;-61
2022/05/29 01:38:15;;;;;;;;;;;;;;;12.46;42.51;101883.75;7365465;19;22760;-61
2022/05/29 01:40:48;;;;;;;;;;;;;;;12.38;42.83;101883.00;7367611;19;19914;-61
2022/05/29 01:43:32;;;;;;;;;;;;;;;12.31;42.91;101876.94;7367755;19;19910;-60
2022/05/29 01:46:10;;;;;;;;;;;;;;;12.25;42.81;101878.78;7369604;19;20342;-61
2022/05/29 01:48:45;;;;;;;;;;;;;;;12.22;42.88;101881.44;7368541;19;19978;-61
2022/05/29 01:51:24;;;;;;;;;;;;;;;12.16;42.47;101871.88;7368965;19;19919;-61
2022/05/29 01:53:56;;;;;;;;;;;;;;;12.09;42.01;101864.97;7365300;19;20640;-61
2022/05/29 01:56:27;;;;;;;;;;;;;;;12.02;41.19;101868.56;7370057;19;20640;-61
2022/05/29 01:58:56;;;;;;;;;;;;;;;11.93;42.32;101869.50;7354851;19;19956;-61
2022/05/29 02:01:24;;;;;;;;;;;;;;;11.84;42.33;101867.81;7366798;19;20006;-61
2022/05/29 02:03:52;;;;;;;;;;;;;;;11.76;42.16;101866.13;7365394;19;19946;-62
2022/05/29 02:09:32;;;;;;;;;;;;;;;11.59;42.72;101859.28;7262739;19;2004353;-61
2022/05/29 02:12:00;;;;;;;;;;;;;;;11.54;42.67;101855.84;7364880;19;19990;-61
2022/05/29 02:14:29;;;;;;;;;;;;;;;11.50;42.79;101856.75;7364883;19;19927;-61
2022/05/29 02:16:57;;;;;;;;;;;;;;;11.45;42.70;101855.91;7365125;19;20002;-61
2022/05/29 02:19:28;;;;;;;;;;;;;;;11.40;42.97;101861.22;7364861;19;19926;-61
2022/05/29 02:22:03;;;;;;;;;;;;;;;11.36;43.03;101866.47;7360645;19;19926;-62
2022/05/29 02:24:33;;;;;;;;;;;;;;;11.31;43.22;101858.66;7363265;19;19939;-61
2022/05/29 02:27:03;;;;;;;;;;;;;;;11.27;43.69;101856.06;7365318;19;19922;-61
2022/05/29 02:29:29;;;;;;;;;;;;;;;11.24;43.75;101856.09;7363560;19;20148;-61
2022/05/29 02:32:12;;;;;;;;;;;;;;;11.21;43.59;101850.88;7364363;19;20327;-60
2022/05/29 02:34:43;;;;;;;;;;;;;;;11.18;43.74;101844.78;7363235;19;19922;-61
2022/05/29 02:37:27;;;;;;;;;;;;;;;11.16;43.84;101848.31;7363773;19;19910;-61
2022/05/29 02:40:13;;;;;;;;;;;;;;;11.14;44.13;101850.91;7360579;19;20778;-61
2022/05/29 02:43:13;;;;;;;;;;;;;;;11.12;44.28;101851.81;7362631;19;19914;-62
2022/05/29 02:45:57;;;;;;;;;;;;;;;11.09;44.28;101847.44;7260359;19;2004354;-61
2022/05/29 02:48:49;;;;;;;;;;;;;;;11.07;44.16;101843.13;7366062;19;19919;-60
2022/05/29 02:51:27;;;;;;;;;;;;;;;11.04;44.26;101838.78;7257511;19;2005186;-61
2022/05/29 02:53:52;;;;;;;;;;;;;;;11.01;43.96;101833.59;7361594;19;19918;-61
2022/05/29 02:56:18;;;;;;;;;;;;;;;10.98;42.86;101833.59;7364928;19;19930;-60
2022/05/29 02:58:47;;;;;;;;;;;;;;;10.94;43.62;101826.66;7361785;19;19926;-61
2022/05/29 03:01:16;;;;;;;;;;;;;;;10.88;43.74;101824.06;7365141;19;19923;-61
2022/05/29 03:03:47;;;;;;;;;;;;;;;10.84;44.00;101824.97;7352372;19;19931;-61
2022/05/29 03:06:13;;;;;;;;;;;;;;;10.80;44.47;101815.44;7364468;19;19923;-61
2022/05/29 03:08:41;;;;;;;;;;;;;;;10.78;44.30;101814.56;7366152;19;19982;-61
2022/05/29 03:11:11;;;;;;;;;;;;;;;10.74;43.42;101811.06;7360514;19;19919;-60
2022/05/29 03:13:57;;;;;;;;;;;;;;;10.71;44.38;101818.09;7366877;19;19987;-60
2022/05/29 03:16:41;;;;;;;;;;;;;;;10.68;44.89;101815.47;7367628;19;19919;-61
2022/05/29 03:19:31;;;;;;;;;;;;;;;10.64;44.80;101809.38;7351698;19;20632;-60
2022/05/29 03:22:15;;;;;;;;;;;;;;;10.60;44.86;101803.34;7367592;19;19939;-60
2022/05/29 03:24:50;;;;;;;;;;;;;;;10.57;44.97;101798.13;7367078;19;19927;-61
2022/05/29 03:27:24;;;;;;;;;;;;;;;10.56;44.83;101793.78;7363822;19;19918;-61
2022/05/29 03:29:55;;;;;;;;;;;;;;;10.54;45.22;101795.53;7363724;19;19922;-60
2022/05/29 03:32:21;;;;;;;;;;;;;;;10.52;45.18;101792.06;7364171;19;20571;-60
2022/05/29 03:34:46;;;;;;;;;;;;;;;10.52;45.15;101788.56;7365775;19;20010;-60
2022/05/29 03:37:11;;;;;;;;;;;;;;;10.50;45.37;101792.94;7365271;19;19922;-60
2022/05/29 03:39:37;;;;;;;;;;;;;;;10.48;44.74;101785.09;7365747;19;19919;-60
2022/05/29 03:42:02;;;;;;;;;;;;;;;10.45;45.23;101779.91;7363801;19;19926;-60
2022/05/29 03:44:27;;;;;;;;;;;;;;;10.43;45.07;101775.56;7365575;19;20541;-60
2022/05/29 03:46:53;;;;;;;;;;;;;;;10.41;45.49;101777.31;7364600;19;19948;-61
2022/05/29 03:49:20;;;;;;;;;;;;;;;10.38;45.20;101775.56;7363541;19;19919;-60
2022/05/29 03:51:45;;;;;;;;;;;;;;;10.35;44.19;101770.38;7364905;19;20461;-60
2022/05/29 03:54:11;;;;;;;;;;;;;;;10.32;44.65;101778.22;7364983;19;19935;-60
2022/05/29 03:56:36;;;;;;;;;;;;;;;10.28;44.41;101776.50;7364023;19;19922;-60
2022/05/29 03:59:02;;;;;;;;;;;;;;;10.24;45.52;101770.44;7361685;19;20260;-61
2022/05/29 04:01:27;;;;;;;;;;;;;;;10.21;45.01;101774.75;7366113;19;19935;-60
2022/05/29 04:03:54;;;;;;;;;;;;;;;10.18;45.25;101769.53;7365398;19;19914;-61
2022/05/29 04:06:20;;;;;;;;;;;;;;;10.17;45.73;101767.81;7365613;19;19914;-60
2022/05/29 04:14:12;;;;;;;;;;;;;;;10.10;45.41;101760.00;7365340;19;20030;-60
2022/05/29 04:16:40;;;;;;;;;;;;;;;10.08;45.59;101759.13;7368231;19;20465;-61
2022/05/29 04:19:06;;;;;;;;;;;;;;;10.07;45.97;101752.19;7370847;19;19922;-60
2022/05/29 04:21:31;;;;;;;;;;;;;;;10.06;45.90;101750.44;7368014;19;20331;-60
2022/05/29 04:23:56;;;;;;;;;;;;;;;10.06;45.37;101754.81;7372063;19;20553;-60
2022/05/29 04:26:22;;;;;;;;;;;;;;;10.04;45.44;101752.22;7371593;19;19919;-60
2022/05/29 04:28:47;;;;;;;;;;;;;;;10.03;45.35;101754.81;7370022;19;19982;-60
2022/05/29 04:31:12;;;;;;;;;;;;;;;10.01;45.62;101752.22;7371265;19;19944;-60
2022/05/29 04:33:37;;;;;;;;;;;;;;;9.99;45.97;101748.75;7368388;19;19943;-60
2022/05/29 04:36:03;;;;;;;;;;;;;;;9.99;45.34;101748.75;7369272;19;19918;-60
2022/05/29 04:38:29;;;;;;;;;;;;;;;9.99;46.17;101753.97;7369577;19;20343;-61
2022/05/29 04:40:55;;;;;;;;;;;;;;;9.99;46.57;101753.97;7372057;19;19978;-60
2022/05/29 04:43:21;;;;;;;;;;;;;;;10.00;46.51;101752.22;7369758;19;19929;-61
2022/05/29 04:45:46;;;;;;;;;;;;;;;10.00;46.16;101753.09;7370197;19;19930;-61
2022/05/29 04:48:13;;;;;;;;;;;;;;;10.02;46.28;101747.84;7370406;19;19937;-60
2022/05/29 04:50:38;;;;;;;;;;;;;;;10.03;46.50;101754.81;7368910;19;21249;-60
2022/05/29 04:53:04;;;;;;;;;;;;;;;10.04;46.48;101752.22;7369228;19;19990;-60
2022/05/29 04:55:29;;;;;;;;;;;;;;;10.06;46.00;101749.59;7370671;19;23860;-60
2022/05/29 04:57:55;;;;;;;;;;;;;;;10.08;45.72;101743.47;7371079;19;19920;-60
2022/05/29 05:00:20;;;;;;;;;;;;;;;10.10;45.29;101746.97;7370039;19;20653;-60
2022/05/29 05:02:46;;;;;;;;;;;;;;;10.10;45.61;101739.13;7367484;19;19931;-60
2022/05/29 05:05:12;;;;;;;;;;;;;;;10.10;45.38;101736.53;7368923;19;20270;-60
2022/05/29 05:07:37;;;;;;;;;;;;;;;10.12;45.75;101734.75;7366397;19;19923;-60
2022/05/29 05:10:03;;;;;;;;;;;;;;;10.13;45.19;101736.50;7370589;19;19939;-60
2022/05/29 05:12:28;;;;;;;;;;;;;;;10.17;45.83;101734.75;7369444;19;19922;-60
2022/05/29 05:14:53;;;;;;;;;;;;;;;10.18;45.55;101723.41;7367899;19;20608;-60
2022/05/29 05:17:19;;;;;;;;;;;;;;;10.21;45.65;101722.56;7367633;19;20306;-61
2022/05/29 05:19:44;;;;;;;;;;;;;;;10.25;45.91;101724.31;7369884;19;20335;-60
2022/05/29 05:22:09;;;;;;;;;;;;;;;10.29;46.32;101733.84;7370260;19;19937;-60
2022/05/29 05:24:37;;;;;;;;;;;;;;;10.32;46.58;101742.53;7365997;19;20747;-60
2022/05/29 05:27:02;;;;;;;;;;;;;;;10.37;46.54;101735.53;7368270;19;19933;-60
2022/05/29 05:29:27;;;;;;;;;;;;;;;10.44;46.80;101731.19;7367748;19;19919;-60
2022/05/29 05:31:52;;;;;;;;;;;;;;;10.47;46.50;101720.69;7368920;19;19918;-60
2022/05/29 05:34:18;;;;;;;;;;;;;;;10.58;47.02;101728.47;7369848;19;19982;-60
2022/05/29 05:36:43;;;;;;;;;;;;;;;10.64;47.11;101734.53;7370145;19;19960;-60
2022/05/29 05:39:08;;;;;;;;;;;;;;;10.73;47.30;101730.09;7369059;19;19914;-60
2022/05/29 05:41:34;;;;;;;;;;;;;;;10.80;47.31;101732.69;7369902;19;19926;-60
2022/05/29 05:43:59;;;;;;;;;;;;;;;10.89;47.32;101729.13;7368417;19;20363;-61
2022/05/29 05:46:24;;;;;;;;;;;;;;;10.96;47.46;101725.59;7368121;19;20387;-60
2022/05/29 05:48:50;;;;;;;;;;;;;;;11.05;47.16;101732.47;7368495;19;19926;-60
2022/05/29 05:51:16;;;;;;;;;;;;;;;11.12;47.64;101732.41;7368868;19;20665;-60
2022/05/29 05:53:41;;;;;;;;;;;;;;;11.23;47.49;101727.09;7366709;19;19929;-60
2022/05/29 05:56:13;;;;;;;;;;;;;;;11.32;47.77;101718.31;7369302;19;19919;-61
2022/05/29 05:58:39;;;;;;;;;;;;;;;11.42;46.72;101719.97;7360734;19;20289;-61
2022/05/29 06:01:05;;;;;;;;;;;;;;;11.50;47.52;101712.88;7365961;19;19947;-60
2022/05/29 06:03:31;;;;;;;;;;;;;;;11.60;47.40;101724.13;7366191;19;19922;-61
2022/05/29 06:05:57;;;;;;;;;;;;;;;11.69;47.78;101721.41;7364262;19;19927;-61
2022/05/29 06:08:22;;;;;;;;;;;;;;;11.78;47.49;101723.94;7367924;19;19943;-60
2022/05/29 06:10:48;;;;;;;;;;;;;;;11.87;47.19;101726.47;7364595;19;20536;-60
2022/05/29 06:13:13;;;;;;;;;;;;;;;11.96;47.35;101722.88;7366257;19;19925;-60
2022/05/29 06:15:38;;;;;;;;;;;;;;;12.05;47.50;101732.38;7367571;19;19982;-60
2022/05/29 06:18:04;;;;;;;;;;;;;;;12.11;47.45;101727.91;7363344;19;19939;-60
2022/05/29 06:20:29;;;;;;;;;;;;;;;12.21;47.34;101739.13;7366207;19;19910;-60
2022/05/29 06:22:54;;;;;;;;;;;;;;;12.29;47.54;101736.44;7366193;19;20569;-61
2022/05/29 06:25:20;;;;;;;;;;;;;;;12.37;47.35;101734.59;7362964;19;19922;-61
2022/05/29 06:27:45;;;;;;;;;;;;;;;12.45;47.03;101727.47;7364592;19;20037;-61
2022/05/29 06:30:12;;;;;;;;;;;;;;;12.53;47.15;101733.47;7367645;19;19925;-61
2022/05/29 06:32:37;;;;;;;;;;;;;;;12.60;47.70;101734.25;7352868;19;19924;-61
2022/05/29 06:35:04;;;;;;;;;;;;;;;12.68;47.51;101735.88;7360595;19;19922;-61
2022/05/29 06:37:29;;;;;;;;;;;;;;;12.75;47.46;101730.53;7365648;19;19922;-60
2022/05/29 06:39:55;;;;;;;;;;;;;;;12.83;47.10;101739.16;7361238;19;19986;-60
2022/05/29 06:42:20;;;;;;;;;;;;;;;12.88;47.73;101743.44;7363477;19;19930;-61
2022/05/29 06:44:45;;;;;;;;;;;;;;;12.94;47.49;101732.00;7365309;19;20342;-60
2022/05/29 06:47:13;;;;;;;;;;;;;;;12.99;46.90;101735.41;7361845;19;20481;-60
2022/05/29 06:49:38;;;;;;;;;;;;;;;13.04;46.76;101733.56;7365887;19;19915;-61
2022/05/29 06:52:10;;;;;;;;;;;;;;;13.08;47.17;101735.25;7359661;19;19941;-60
2022/05/29 06:54:36;;;;;;;;;;;;;;;13.12;47.13;101731.66;7366293;19;19927;-61
2022/05/29 06:57:02;;;;;;;;;;;;;;;13.15;46.73;101733.38;7362513;19;23582;-61
2022/05/29 06:59:27;;;;;;;;;;;;;;;13.16;46.71;101733.34;7364165;19;19930;-61
2022/05/29 07:07:21;;;;;;;;;;;;;;;13.29;47.31;101738.44;7366311;19;19938;-60
2022/05/29 07:09:46;;;;;;;;;;;;;;;13.38;47.41;101740.88;7363453;19;19919;-61
2022/05/29 07:12:15;;;;;;;;;;;;;;;13.49;47.09;101741.56;7365467;19;19923;-61
2022/05/29 07:14:42;;;;;;;;;;;;;;;13.62;47.59;101743.06;7363296;19;19923;-60
2022/05/29 07:17:08;;;;;;;;;;;;;;;13.77;47.63;101742.78;7363044;19;20564;-61
2022/05/29 07:19:34;;;;;;;;;;;;;;;13.93;47.38;101738.09;7365052;19;20024;-61
2022/05/29 07:22:00;;;;;;;;;;;;;;;14.09;47.41;101735.16;7362691;19;19927;-60
2022/05/29 07:24:26;;;;;;;;;;;;;;;14.23;47.40;101740.97;7360747;19;19930;-61
2022/05/29 07:26:53;;;;;;;;;;;;;;;14.36;47.43;101736.34;7362910;19;21253;-60
2022/05/29 07:29:18;;;;;;;;;;;;;;;14.47;46.57;101736.97;7361007;19;20255;-61
2022/05/29 07:31:47;;;;;;;;;;;;;;;14.57;46.59;101738.53;7361001;19;19982;-61
2022/05/29 07:34:12;;;;;;;;;;;;;;;14.67;46.88;101736.53;7363694;19;19926;-61
2022/05/29 07:36:38;;;;;;;;;;;;;;;14.76;47.16;101731.94;7361143;19;20551;-60
2022/05/29 07:39:03;;;;;;;;;;;;;;;14.87;46.81;101728.19;7364314;19;20396;-61
2022/05/29 07:44:12;;;;;;;;;;;;;;;15.07;46.74;101725.06;7360990;19;19925;-61
2022/05/29 07:46:37;;;;;;;;;;;;;;;15.16;46.54;101715.19;7361714;19;19919;-61
2022/05/29 07:49:03;;;;;;;;;;;;;;;15.24;46.97;101710.56;7361684;19;19925;-62
2022/05/29 07:51:28;;;;;;;;;;;;;;;15.34;46.28;101702.44;7356006;19;19918;-61
2022/05/29 07:53:53;;;;;;;;;;;;;;;15.44;46.50;101714.44;7361834;19;19919;-61
2022/05/29 07:56:19;;;;;;;;;;;;;;;15.55;46.62;101707.97;7358018;19;19918;-61
2022/05/29 07:58:45;;;;;;;;;;;;;;;15.65;46.37;101698.09;7359928;19;19982;-61
2022/05/29 08:01:11;;;;;;;;;;;;;;;15.76;46.14;101703.97;7363264;19;20361;-61
2022/05/29 08:03:36;;;;;;;;;;;;;;;15.83;45.91;101705.50;7361133;19;19930;-61
2022/05/29 08:06:02;;;;;;;;;;;;;;;15.91;46.07;101713.16;7362286;19;19930;-61
2022/05/29 08:08:29;;;;;;;;;;;;;;;15.97;46.43;101697.19;7362665;19;19953;-61
2022/05/29 08:10:54;;;;;;;;;;;;;;;16.07;46.29;101708.34;7360781;19;19918;-61
2022/05/29 08:13:20;;;;;;;;;;;;;;;16.16;45.47;101705.41;7351328;19;19922;-62
2022/05/29 08:15:45;;;;;;;;;;;;;;;16.23;45.51;101701.69;7354509;19;19939;-61
2022/05/29 08:18:10;;;;;;;;;;;;;;;16.31;46.19;101699.66;7361404;19;19915;-60
2022/05/29 08:20:36;;;;;;;;;;;;;;;16.42;45.57;101695.84;7360373;19;19931;-61
2022/05/29 08:23:02;;;;;;;;;;;;;;;16.51;45.83;101698.19;7362146;19;19929;-61
2022/05/29 08:30:55;;;;;;;;;;;;;;;16.78;45.62;101699.13;7359609;19;19929;-61
2022/05/29 08:33:25;;;;;;;;;;;;;;;16.84;45.65;101704.22;7358592;19;20395;-61
2022/05/29 08:35:53;;;;;;;;;;;;;;;16.91;45.37;101704.88;7358836;19;19914;-61
2022/05/29 08:38:18;;;;;;;;;;;;;;;16.98;45.77;101696.72;7362457;19;19930;-61
2022/05/29 08:40:45;;;;;;;;;;;;;;;17.05;45.52;101681.53;7360060;19;19914;-61
2022/05/29 08:43:15;;;;;;;;;;;;;;;17.15;45.60;101696.13;7360675;19;19915;-61
2022/05/29 08:45:41;;;;;;;;;;;;;;;17.23;45.40;101696.72;7360079;19;19942;-61
2022/05/29 08:48:07;;;;;;;;;;;;;;;17.29;45.08;101691.25;7356347;19;19982;-61
2022/05/29 08:50:39;;;;;;;;;;;;;;;17.36;45.33;101692.75;7358957;19;20473;-61
2022/05/29 08:53:07;;;;;;;;;;;;;;;17.41;45.08;101695.22;7359968;19;19982;-61
2022/05/29 08:55:45;;;;;;;;;;;;;;;17.48;45.01;101691.44;7357958;19;20371;-61
2022/05/29 08:58:24;;;;;;;;;;;;;;;17.56;44.96;101686.75;7360654;19;20484;-62
2022/05/29 09:00:56;;;;;;;;;;;;;;;17.68;45.20;101677.50;7356182;19;19930;-61
2022/05/29 09:03:22;;;;;;;;;;;;;;;17.81;45.24;101684.09;7366249;19;19942;-61
2022/05/29 09:05:51;;;;;;;;;;;;;;;17.94;45.13;101683.63;7362138;19;20603;-61
2022/05/29 09:08:16;;;;;;;;;;;;;;;18.06;45.41;101683.19;7366830;19;19919;-61
2022/05/29 09:10:43;;;;;;;;;;;;;;;18.19;45.21;101675.63;7366136;19;20602;-61
2022/05/29 09:13:23;;;;;;;;;;;;;;;18.29;44.80;101669.91;7363233;19;19918;-61
2022/05/29 09:15:50;;;;;;;;;;;;;;;18.40;44.80;101669.53;7366449;19;19930;-61
2022/05/29 09:18:21;;;;;;;;;;;;;;;18.48;44.27;101661.25;7364383;19;20003;-61
2022/05/29 09:20:49;;;;;;;;;;;;;;;18.54;44.67;101648.63;7362091;19;19931;-61
2022/05/29 09:23:17;;;;;;;;;;;;;;;18.58;44.67;101659.97;7367254;19;19940;-62
2022/05/29 09:25:43;;;;;;;;;;;;;;;18.61;44.61;101657.22;7364413;19;19911;-61
2022/05/29 09:28:11;;;;;;;;;;;;;;;18.63;44.36;101658.00;7365198;19;19923;-61
2022/05/29 09:30:38;;;;;;;;;;;;;;;18.62;44.88;101656.28;7365395;19;19975;-61
2022/05/29 09:33:28;;;;;;;;;;;;;;;18.61;44.24;101650.13;7365388;19;21958;-61
2022/05/29 09:36:02;;;;;;;;;;;;;;;18.63;44.54;101650.91;7366034;19;20483;-61
2022/05/29 09:38:34;;;;;;;;;;;;;;;18.66;44.84;101642.88;7366091;19;19914;-61
2022/05/29 09:41:04;;;;;;;;;;;;;;;18.69;44.73;101646.31;7365720;19;19918;-61
2022/05/29 09:43:29;;;;;;;;;;;;;;;18.72;44.66;101636.50;7364434;19;19930;-61
2022/05/29 09:45:55;;;;;;;;;;;;;;;18.75;45.08;101628.41;7366427;19;19922;-61
2022/05/29 09:51:18;;;;;;;;;;;;;;;18.82;44.58;101643.13;7261193;19;2004545;-61
2022/05/29 09:53:49;;;;;;;;;;;;;;;18.92;44.75;101643.59;7366629;19;20635;-61
2022/05/29 09:56:22;;;;;;;;;;;;;;;19.16;44.68;101647.84;7366331;19;20264;-61
2022/05/29 09:58:49;;;;;;;;;;;;;;;19.50;45.11;101640.16;7358262;19;19938;-61
2022/05/29 10:01:34;;;;;;;;;;;;;;;19.82;45.19;101634.31;7364286;19;20347;-61
2022/05/29 10:04:00;;;;;;;;;;;;;;;20.17;44.68;101637.06;7362992;19;19943;-62
2022/05/29 10:06:34;;;;;;;;;;;;;;;20.41;44.44;101641.19;7359512;19;19947;-62
2022/05/29 10:09:07;;;;;;;;;;;;;;;20.67;44.03;101637.28;7361648;19;20383;-61
2022/05/29 10:11:32;;;;;;;;;;;;;;;20.99;44.65;101642.78;7361340;19;19915;-62
2022/05/29 10:14:00;;;;;;;;;;;;;;;21.35;44.56;101640.03;7361077;19;20008;-61
2022/05/29 10:16:33;;;;;;;;;;;;;;;21.69;44.33;101638.22;7361755;19;20680;-62
2022/05/29 10:18:59;;;;;;;;;;;;;;;21.91;44.05;101644.09;7358856;19;19918;-61
2022/05/29 10:21:27;;;;;;;;;;;;;;;22.03;43.38;101648.72;7360623;19;20457;-61
2022/05/29 10:24:09;;;;;;;;;;;;;;;22.07;43.31;101648.56;7362014;19;19914;-61
2022/05/29 10:26:36;;;;;;;;;;;;;;;22.09;42.90;101646.66;7360699;19;20251;-61
2022/05/29 10:29:10;;;;;;;;;;;;;;;22.08;42.90;101634.31;7360873;19;19934;-62
2022/05/29 10:31:36;;;;;;;;;;;;;;;22.14;43.06;101641.97;7358543;19;19952;-61
2022/05/29 10:34:09;;;;;;;;;;;;;;;22.27;42.67;101641.19;7362897;19;19911;-61
2022/05/29 10:36:36;;;;;;;;;;;;;;;22.42;42.88;101644.78;7351697;19;19907;-61
2022/05/29 10:39:07;;;;;;;;;;;;;;;22.53;42.34;101646.81;7363719;19;19929;-61
2022/05/29 10:41:34;;;;;;;;;;;;;;;22.63;42.32;101652.47;7364400;19;19935;-61
2022/05/29 10:43:59;;;;;;;;;;;;;;;22.67;42.09;101656.69;7364518;19;19922;-61
2022/05/29 10:46:37;;;;;;;;;;;;;;;22.74;42.47;101645.56;7358112;19;19936;-62
2022/05/29 10:49:02;;;;;;;;;;;;;;;22.87;42.18;101659.03;7361284;19;19922;-61
2022/05/29 10:51:36;;;;;;;;;;;;;;;22.98;42.21;101661.94;7359696;19;19921;-61
2022/05/29 10:54:22;;;;;;;;;;;;;;;23.13;41.86;101668.16;7362345;19;20269;-61
2022/05/29 10:56:56;;;;;;;;;;;;;;;23.24;41.84;101670.19;7361140;19;19915;-61
2022/05/29 10:59:34;;;;;;;;;;;;;;;23.28;41.77;101671.72;7358747;19;19939;-61
2022/05/29 11:05:11;;;;;;;;;;;;;;;23.19;40.73;101675.78;7359079;19;19935;-61
2022/05/29 11:07:49;;;;;;;;;;;;;;;23.11;40.84;101677.19;7356274;19;19943;-61
2022/05/29 11:10:26;;;;;;;;;;;;;;;23.02;40.86;101676.81;7359709;19;19922;-61
2022/05/29 11:13:09;;;;;;;;;;;;;;;22.92;40.61;101691.63;7363388;19;20642;-61
2022/05/29 11:15:35;;;;;;;;;;;;;;;22.74;40.50;101674.00;7358949;19;19914;-61
2022/05/29 11:18:21;;;;;;;;;;;;;;;22.66;40.80;101681.59;7364931;19;19953;-61
2022/05/29 11:20:52;;;;;;;;;;;;;;;22.52;40.37;101667.28;7358428;19;19914;-62
2022/05/29 11:23:23;;;;;;;;;;;;;;;22.42;40.58;101675.88;7364798;19;20454;-61
2022/05/29 11:25:48;;;;;;;;;;;;;;;22.29;40.40;101670.38;7364243;19;19940;-61
2022/05/29 11:28:16;;;;;;;;;;;;;;;22.17;40.62;101679.06;7364322;19;19918;-61
2022/05/29 11:30:41;;;;;;;;;;;;;;;22.02;40.44;101673.59;7365601;19;19933;-61
2022/05/29 11:33:09;;;;;;;;;;;;;;;21.90;40.50;101674.28;7364707;19;19927;-61
2022/05/29 11:35:44;;;;;;;;;;;;;;;21.87;40.64;101674.44;7359752;19;19923;-61
2022/05/29 11:38:15;;;;;;;;;;;;;;;21.98;40.81;101674.69;7356401;19;19943;-61
2022/05/29 11:40:45;;;;;;;;;;;;;;;22.16;40.93;101675.53;7363855;19;19926;-61
2022/05/29 11:43:23;;;;;;;;;;;;;;;22.29;40.92;101665.03;7353647;19;20494;-61
2022/05/29 11:51:28;;;;;;;;;;;;;;;22.19;40.25;101678.00;7359784;19;20639;-61
2022/05/29 11:53:53;;;;;;;;;;;;;;;22.05;40.06;101682.34;7364301;19;20811;-61
2022/05/29 11:56:25;;;;;;;;;;;;;;;21.83;40.27;101672.88;7356678;19;19910;-61
2022/05/29 11:59:11;;;;;;;;;;;;;;;21.60;40.18;101678.59;7356958;19;19918;-61
2022/05/29 12:01:39;;;;;;;;;;;;;;;21.32;40.67;101672.06;7354236;19;19927;-61
2022/05/29 12:04:17;;;;;;;;;;;;;;;21.10;40.29;101672.28;7354883;19;19978;-61
2022/05/29 12:06:45;;;;;;;;;;;;;;;20.92;40.45;101667.91;7358086;19;20285;-61
2022/05/29 12:09:24;;;;;;;;;;;;;;;20.78;40.75;101659.78;7358406;19;20594;-61
2022/05/29 12:11:55;;;;;;;;;;;;;;;20.66;41.11;101667.41;7356910;19;19923;-61
2022/05/29 12:14:23;;;;;;;;;;;;;;;20.61;41.40;101664.13;7355527;19;19967;-61
2022/05/29 12:16:51;;;;;;;;;;;;;;;20.64;41.46;101660.47;7358170;19;19947;-61
2022/05/29 12:19:27;;;;;;;;;;;;;;;20.75;42.01;101660.81;7357101;19;19914;-61
2022/05/29 12:21:59;;;;;;;;;;;;;;;20.91;41.99;101664.41;7356441;19;20011;-61
2022/05/29 12:24:28;;;;;;;;;;;;;;;21.05;41.92;101657.53;7359949;19;19918;-61
2022/05/29 12:27:12;;;;;;;;;;;;;;;21.19;42.04;101669.16;7356471;19;20287;-62
2022/05/29 12:29:56;;;;;;;;;;;;;;;21.48;42.21;101654.38;7352669;19;19938;-61
2022/05/29 12:32:25;;;;;;;;;;;;;;;21.93;42.46;101658.13;7352804;19;19919;-61
2022/05/29 12:34:55;;;;;;;;;;;;;;;22.28;42.20;101647.38;7357391;19;19990;-61
2022/05/29 12:37:30;;;;;;;;;;;;;;;22.59;41.68;101656.25;7358081;19;20459;-62
2022/05/29 12:40:01;;;;;;;;;;;;;;;22.83;41.23;101652.16;7365059;19;19914;-62
2022/05/29 12:42:26;;;;;;;;;;;;;;;23.09;41.26;101649.78;7365896;19;19966;-62
2022/05/29 12:44:55;;;;;;;;;;;;;;;23.35;41.12;101641.06;7365071;19;24286;-62
2022/05/29 12:47:23;;;;;;;;;;;;;;;23.63;41.24;101639.38;7364358;19;20308;-62
2022/05/29 12:49:54;;;;;;;;;;;;;;;23.89;41.00;101638.59;7365527;19;19955;-61
2022/05/29 12:52:31;;;;;;;;;;;;;;;24.23;41.10;101636.41;7365982;19;19918;-62
2022/05/29 12:55:15;;;;;;;;;;;;;;;24.58;40.57;101634.13;7366735;19;20365;-61
2022/05/29 12:57:43;;;;;;;;;;;;;;;24.90;40.05;101634.63;7366852;19;19918;-62
2022/05/29 13:00:11;;;;;;;;;;;;;;;25.16;39.56;101632.03;7366085;19;19928;-62
2022/05/29 13:02:55;;;;;;;;;;;;;;;25.40;39.84;101627.66;7368644;19;20875;-62
2022/05/29 13:05:38;;;;;;;;;;;;;;;25.72;39.67;101622.66;7369211;19;19929;-61
2022/05/29 13:08:20;;;;;;;;;;;;;;;26.12;39.87;101617.13;7363316;19;20629;-62
2022/05/29 13:10:50;;;;;;;;;;;;;;;26.58;39.80;101611.91;7365205;19;19970;-61
2022/05/29 13:13:20;;;;;;;;;;;;;;;26.98;39.42;101618.72;7365245;19;19922;-62
2022/05/29 13:15:45;;;;;;;;;;;;;;;27.32;38.46;101614.25;7364395;19;19911;-61
2022/05/29 13:18:19;;;;;;;;;;;;;;;27.62;37.95;101616.34;7366190;19;20707;-62
2022/05/29 13:21:14;;;;;;;;;;;;;;;28.03;38.61;101613.03;7362279;19;20360;-59